North Vernon, IN (47265)

6:58 PM EST on December 10, 2016 (GMT -0500)
| | Change Station

Elev -9999 ft 0.00 °N, 0.00 °E | Updated 6 minutes ago

Overcast
Overcast
71 °F
Feels Like 71 °F
N
6
Wind Variable Wind from South
Gusts mph

Today
High -- | Low -- °F
--% Chance of Precip.
Yesterday
High -- | Low -- °F
Precip. -- in
Pressure 30.47 in
Visibility 10.0 miles
Clouds Mostly Cloudy 11000 ft
Dew Point 65 °F
Humidity 83%
Rainfall --
Snow Depth Not available.
7:50 AM 5:20 PM
Waxing Gibbous, 87% visible
METAR KBAK 102345Z 18005KT 10SM BKN110 M02/M07 A3047
Pressure 30.47 in
Visibility 10.0 miles
Clouds Mostly Cloudy 11000 ft
Dew Point 65 °F
Humidity 83%
Rainfall --
Snow Depth Not available.
7:50 AM 5:20 PM
Waxing Gibbous, 87% visible
METAR KBAK 102345Z 18005KT 10SM BKN110 M02/M07 A3047

10-Day Weather Forecast

Almanac

Astronomy

Dec. 10, 2016 Rise Set
Actual Time
Civil Twilight
Nautical Twilight
Astronomical Twilight
Moon
Length of Visible Light
Length of Day
Tomorrow will be .
, % of the Moon is Illuminated

Today's Extremes

State Highs State Lows

Community

WunderPhotos

Upload Photos

1,956,677 photos uploaded!

WunderBlog® & News

Nearby

Air Quality

  Air Quality AQ Index Pollutant
Not available.

Snow Depth

Station Depth Elevation

Earthquake Activity

City Distance Mag. Time & Date
Minimum magnitude displayed is 2.5.

Coastal Water Temperatures

Place Temperature

Stations

Nearby Weather Stations

Station Location Temp. Windchill Dew Point Humidity Wind Precip. Elev Updated Type
                   

Watches & Warnings

There are currently no watches in effect.